sensor_id;sensor_type;location;lat;lon;timestamp;P1;durP1;ratioP1;P2;durP2;ratioP2
26277;SDS011;14000;52.056;8.510;2022-09-21T00:01:08;8.90;;;3.77;;
26277;SDS011;14000;52.056;8.510;2022-09-21T00:03:39;10.83;;;4.47;;
26277;SDS011;14000;52.056;8.510;2022-09-21T00:06:09;11.03;;;4.53;;
26277;SDS011;14000;52.056;8.510;2022-09-21T00:08:37;11.00;;;4.47;;
26277;SDS011;14000;52.056;8.510;2022-09-21T00:11:03;13.03;;;4.00;;
26277;SDS011;14000;52.056;8.510;2022-09-21T00:13:29;9.03;;;4.07;;
26277;SDS011;14000;52.056;8.510;2022-09-21T00:15:57;9.97;;;3.73;;
26277;SDS011;14000;52.056;8.510;2022-09-21T00:18:23;14.63;;;4.77;;
26277;SDS011;14000;52.056;8.510;2022-09-21T00:20:49;9.70;;;4.33;;
26277;SDS011;14000;52.056;8.510;2022-09-21T00:23:16;12.80;;;4.50;;
26277;SDS011;14000;52.056;8.510;2022-09-21T00:25:42;10.80;;;4.10;;
26277;SDS011;14000;52.056;8.510;2022-09-21T00:28:11;11.23;;;4.47;;
26277;SDS011;14000;52.056;8.510;2022-09-21T00:30:37;11.50;;;4.40;;
26277;SDS011;14000;52.056;8.510;2022-09-21T00:33:03;12.47;;;4.30;;
26277;SDS011;14000;52.056;8.510;2022-09-21T00:35:28;11.77;;;4.40;;
26277;SDS011;14000;52.056;8.510;2022-09-21T00:37:54;10.93;;;3.90;;
26277;SDS011;14000;52.056;8.510;2022-09-21T00:40:19;10.23;;;4.10;;
26277;SDS011;14000;52.056;8.510;2022-09-21T00:42:45;9.87;;;4.03;;
26277;SDS011;14000;52.056;8.510;2022-09-21T00:45:11;10.87;;;4.37;;
26277;SDS011;14000;52.056;8.510;2022-09-21T00:47:45;10.13;;;3.87;;
26277;SDS011;14000;52.056;8.510;2022-09-21T00:50:18;12.50;;;4.80;;
26277;SDS011;14000;52.056;8.510;2022-09-21T00:52:48;12.07;;;5.80;;
26277;SDS011;14000;52.056;8.510;2022-09-21T00:55:24;11.33;;;5.40;;
26277;SDS011;14000;52.056;8.510;2022-09-21T00:57:59;13.90;;;6.03;;
26277;SDS011;14000;52.056;8.510;2022-09-21T01:00:28;16.93;;;7.20;;
26277;SDS011;14000;52.056;8.510;2022-09-21T01:02:54;16.93;;;9.07;;
26277;SDS011;14000;52.056;8.510;2022-09-21T01:05:25;17.70;;;9.47;;
26277;SDS011;14000;52.056;8.510;2022-09-21T01:07:51;14.40;;;7.20;;
26277;SDS011;14000;52.056;8.510;2022-09-21T01:10:18;17.90;;;8.03;;
26277;SDS011;14000;52.056;8.510;2022-09-21T01:18:27;20.30;;;9.50;;
26277;SDS011;14000;52.056;8.510;2022-09-21T01:29:07;15.73;;;8.17;;
26277;SDS011;14000;52.056;8.510;2022-09-21T01:32:02;15.23;;;8.37;;
26277;SDS011;14000;52.056;8.510;2022-09-21T01:34:38;18.17;;;8.87;;
26277;SDS011;14000;52.056;8.510;2022-09-21T01:37:16;19.03;;;9.40;;
26277;SDS011;14000;52.056;8.510;2022-09-21T01:39:46;14.80;;;7.13;;
26277;SDS011;14000;52.056;8.510;2022-09-21T01:42:16;17.67;;;7.37;;
26277;SDS011;14000;52.056;8.510;2022-09-21T01:44:44;15.97;;;7.30;;
26277;SDS011;14000;52.056;8.510;2022-09-21T01:47:11;16.40;;;7.67;;
26277;SDS011;14000;52.056;8.510;2022-09-21T01:49:52;17.47;;;8.80;;
26277;SDS011;14000;52.056;8.510;2022-09-21T01:52:41;16.13;;;8.60;;
26277;SDS011;14000;52.056;8.510;2022-09-21T01:55:35;18.60;;;8.50;;
26277;SDS011;14000;52.056;8.510;2022-09-21T01:58:13;19.13;;;8.30;;
26277;SDS011;14000;52.056;8.510;2022-09-21T02:00:43;16.93;;;7.80;;
26277;SDS011;14000;52.056;8.510;2022-09-21T02:03:20;15.73;;;6.37;;
26277;SDS011;14000;52.056;8.510;2022-09-21T02:05:58;13.97;;;7.17;;
26277;SDS011;14000;52.056;8.510;2022-09-21T02:08:25;13.97;;;7.30;;
26277;SDS011;14000;52.056;8.510;2022-09-21T02:10:53;12.73;;;6.80;;
26277;SDS011;14000;52.056;8.510;2022-09-21T02:13:20;13.73;;;6.97;;
26277;SDS011;14000;52.056;8.510;2022-09-21T02:24:32;12.47;;;6.00;;
26277;SDS011;14000;52.056;8.510;2022-09-21T02:29:55;13.00;;;5.53;;
26277;SDS011;14000;52.056;8.510;2022-09-21T02:37:42;11.57;;;5.50;;
26277;SDS011;14000;52.056;8.510;2022-09-21T02:40:12;14.60;;;6.10;;
26277;SDS011;14000;52.056;8.510;2022-09-21T02:43:00;13.33;;;5.83;;
26277;SDS011;14000;52.056;8.510;2022-09-21T02:45:35;12.73;;;5.23;;
26277;SDS011;14000;52.056;8.510;2022-09-21T02:50:47;10.77;;;5.07;;
26277;SDS011;14000;52.056;8.510;2022-09-21T02:53:22;10.60;;;5.80;;
26277;SDS011;14000;52.056;8.510;2022-09-21T02:55:53;11.80;;;5.53;;
26277;SDS011;14000;52.056;8.510;2022-09-21T02:58:22;12.03;;;5.53;;
26277;SDS011;14000;52.056;8.510;2022-09-21T03:00:50;13.50;;;6.30;;
26277;SDS011;14000;52.056;8.510;2022-09-21T03:03:17;16.10;;;7.50;;
26277;SDS011;14000;52.056;8.510;2022-09-21T03:05:47;14.27;;;8.10;;
26277;SDS011;14000;52.056;8.510;2022-09-21T03:08:16;18.07;;;6.90;;
26277;SDS011;14000;52.056;8.510;2022-09-21T03:10:42;13.23;;;7.03;;
26277;SDS011;14000;52.056;8.510;2022-09-21T03:13:09;15.07;;;7.80;;
26277;SDS011;14000;52.056;8.510;2022-09-21T03:15:38;14.47;;;7.47;;
26277;SDS011;14000;52.056;8.510;2022-09-21T03:18:05;16.90;;;7.00;;
26277;SDS011;14000;52.056;8.510;2022-09-21T03:20:34;13.33;;;6.83;;
26277;SDS011;14000;52.056;8.510;2022-09-21T03:23:00;11.40;;;6.10;;
26277;SDS011;14000;52.056;8.510;2022-09-21T03:25:27;15.53;;;7.10;;
26277;SDS011;14000;52.056;8.510;2022-09-21T03:27:53;12.97;;;6.83;;
26277;SDS011;14000;52.056;8.510;2022-09-21T03:30:20;13.20;;;7.00;;
26277;SDS011;14000;52.056;8.510;2022-09-21T03:32:49;12.63;;;6.73;;
26277;SDS011;14000;52.056;8.510;2022-09-21T03:35:16;14.93;;;6.90;;
26277;SDS011;14000;52.056;8.510;2022-09-21T03:37:42;12.73;;;6.43;;
26277;SDS011;14000;52.056;8.510;2022-09-21T03:40:10;14.83;;;6.80;;
26277;SDS011;14000;52.056;8.510;2022-09-21T03:42:36;14.40;;;6.57;;
26277;SDS011;14000;52.056;8.510;2022-09-21T03:45:03;13.33;;;6.60;;
26277;SDS011;14000;52.056;8.510;2022-09-21T03:47:29;12.47;;;6.37;;
26277;SDS011;14000;52.056;8.510;2022-09-21T03:49:55;11.70;;;6.07;;
26277;SDS011;14000;52.056;8.510;2022-09-21T03:52:21;10.67;;;5.30;;
26277;SDS011;14000;52.056;8.510;2022-09-21T03:54:46;13.37;;;5.77;;
26277;SDS011;14000;52.056;8.510;2022-09-21T03:57:12;17.83;;;7.77;;
26277;SDS011;14000;52.056;8.510;2022-09-21T03:59:38;24.23;;;10.73;;
26277;SDS011;14000;52.056;8.510;2022-09-21T04:02:03;25.90;;;9.70;;
26277;SDS011;14000;52.056;8.510;2022-09-21T04:04:29;19.90;;;8.73;;
26277;SDS011;14000;52.056;8.510;2022-09-21T04:06:55;20.70;;;8.40;;
26277;SDS011;14000;52.056;8.510;2022-09-21T04:09:20;30.93;;;11.13;;
26277;SDS011;14000;52.056;8.510;2022-09-21T04:11:46;20.77;;;8.33;;
26277;SDS011;14000;52.056;8.510;2022-09-21T04:14:12;17.43;;;6.67;;
26277;SDS011;14000;52.056;8.510;2022-09-21T04:16:38;14.33;;;6.40;;
26277;SDS011;14000;52.056;8.510;2022-09-21T04:19:04;12.63;;;5.43;;
26277;SDS011;14000;52.056;8.510;2022-09-21T04:21:29;15.00;;;6.00;;
26277;SDS011;14000;52.056;8.510;2022-09-21T04:23:55;13.13;;;5.43;;
26277;SDS011;14000;52.056;8.510;2022-09-21T04:26:28;14.03;;;5.03;;
26277;SDS011;14000;52.056;8.510;2022-09-21T04:28:55;11.63;;;5.43;;
26277;SDS011;14000;52.056;8.510;2022-09-21T04:31:22;11.33;;;5.70;;
26277;SDS011;14000;52.056;8.510;2022-09-21T04:33:49;12.00;;;5.03;;
26277;SDS011;14000;52.056;8.510;2022-09-21T04:36:19;12.17;;;5.37;;
26277;SDS011;14000;52.056;8.510;2022-09-21T04:38:46;13.17;;;5.67;;
26277;SDS011;14000;52.056;8.510;2022-09-21T04:41:12;11.50;;;5.27;;
26277;SDS011;14000;52.056;8.510;2022-09-21T04:43:41;10.60;;;4.87;;
26277;SDS011;14000;52.056;8.510;2022-09-21T04:46:10;10.83;;;5.03;;
26277;SDS011;14000;52.056;8.510;2022-09-21T04:48:37;14.03;;;5.10;;
26277;SDS011;14000;52.056;8.510;2022-09-21T04:51:03;11.53;;;5.00;;
26277;SDS011;14000;52.056;8.510;2022-09-21T04:53:33;11.03;;;5.50;;
26277;SDS011;14000;52.056;8.510;2022-09-21T04:56:01;11.47;;;4.60;;
26277;SDS011;14000;52.056;8.510;2022-09-21T04:58:27;11.30;;;4.80;;
26277;SDS011;14000;52.056;8.510;2022-09-21T05:00:53;12.90;;;5.37;;
26277;SDS011;14000;52.056;8.510;2022-09-21T05:03:20;12.13;;;4.93;;
26277;SDS011;14000;52.056;8.510;2022-09-21T05:05:50;12.77;;;6.13;;
26277;SDS011;14000;52.056;8.510;2022-09-21T05:08:20;11.73;;;5.07;;
26277;SDS011;14000;52.056;8.510;2022-09-21T05:11:07;14.47;;;5.80;;
26277;SDS011;14000;52.056;8.510;2022-09-21T05:13:34;11.53;;;5.40;;
26277;SDS011;14000;52.056;8.510;2022-09-21T05:16:00;10.93;;;4.87;;
26277;SDS011;14000;52.056;8.510;2022-09-21T05:18:25;12.30;;;5.23;;
26277;SDS011;14000;52.056;8.510;2022-09-21T05:20:55;11.40;;;5.10;;
26277;SDS011;14000;52.056;8.510;2022-09-21T05:23:21;15.03;;;5.07;;
26277;SDS011;14000;52.056;8.510;2022-09-21T05:25:47;11.83;;;5.17;;
26277;SDS011;14000;52.056;8.510;2022-09-21T05:28:14;11.10;;;5.57;;
26277;SDS011;14000;52.056;8.510;2022-09-21T05:30:41;13.27;;;5.20;;
26277;SDS011;14000;52.056;8.510;2022-09-21T05:33:15;11.80;;;5.00;;
26277;SDS011;14000;52.056;8.510;2022-09-21T05:35:57;11.77;;;5.23;;
26277;SDS011;14000;52.056;8.510;2022-09-21T05:38:44;12.90;;;5.10;;
26277;SDS011;14000;52.056;8.510;2022-09-21T05:41:10;11.63;;;4.83;;
26277;SDS011;14000;52.056;8.510;2022-09-21T05:43:36;11.30;;;5.63;;
26277;SDS011;14000;52.056;8.510;2022-09-21T05:46:04;13.30;;;6.50;;
26277;SDS011;14000;52.056;8.510;2022-09-21T05:48:40;12.20;;;6.07;;
26277;SDS011;14000;52.056;8.510;2022-09-21T05:51:14;16.37;;;6.57;;
26277;SDS011;14000;52.056;8.510;2022-09-21T05:53:56;13.10;;;6.50;;
26277;SDS011;14000;52.056;8.510;2022-09-21T06:01:56;11.73;;;5.50;;
26277;SDS011;14000;52.056;8.510;2022-09-21T06:04:29;12.57;;;5.30;;
26277;SDS011;14000;52.056;8.510;2022-09-21T06:06:55;12.67;;;5.13;;
26277;SDS011;14000;52.056;8.510;2022-09-21T06:09:21;12.37;;;5.63;;
26277;SDS011;14000;52.056;8.510;2022-09-21T06:11:47;11.67;;;5.77;;
26277;SDS011;14000;52.056;8.510;2022-09-21T06:14:12;15.60;;;5.50;;
26277;SDS011;14000;52.056;8.510;2022-09-21T06:16:38;15.57;;;7.03;;
26277;SDS011;14000;52.056;8.510;2022-09-21T06:19:05;12.83;;;6.03;;
26277;SDS011;14000;52.056;8.510;2022-09-21T06:21:31;13.00;;;6.23;;
26277;SDS011;14000;52.056;8.510;2022-09-21T06:23:56;11.60;;;5.53;;
26277;SDS011;14000;52.056;8.510;2022-09-21T06:26:22;15.43;;;5.20;;
26277;SDS011;14000;52.056;8.510;2022-09-21T06:28:47;13.77;;;6.13;;
26277;SDS011;14000;52.056;8.510;2022-09-21T06:31:13;16.33;;;6.03;;
26277;SDS011;14000;52.056;8.510;2022-09-21T06:33:41;11.90;;;5.33;;
26277;SDS011;14000;52.056;8.510;2022-09-21T06:36:07;12.43;;;5.57;;
26277;SDS011;14000;52.056;8.510;2022-09-21T06:38:32;11.00;;;5.20;;
26277;SDS011;14000;52.056;8.510;2022-09-21T06:41:02;11.67;;;5.50;;
26277;SDS011;14000;52.056;8.510;2022-09-21T06:43:29;11.83;;;6.13;;
26277;SDS011;14000;52.056;8.510;2022-09-21T06:45:56;13.47;;;5.83;;
26277;SDS011;14000;52.056;8.510;2022-09-21T06:48:24;12.77;;;6.10;;
26277;SDS011;14000;52.056;8.510;2022-09-21T06:50:55;11.13;;;5.90;;
26277;SDS011;14000;52.056;8.510;2022-09-21T06:53:22;13.93;;;5.83;;
26277;SDS011;14000;52.056;8.510;2022-09-21T06:55:48;14.83;;;6.63;;
26277;SDS011;14000;52.056;8.510;2022-09-21T06:58:13;13.57;;;6.40;;
26277;SDS011;14000;52.056;8.510;2022-09-21T07:00:39;15.03;;;6.67;;
26277;SDS011;14000;52.056;8.510;2022-09-21T07:03:04;14.03;;;6.53;;
26277;SDS011;14000;52.056;8.510;2022-09-21T07:05:31;12.47;;;6.10;;
26277;SDS011;14000;52.056;8.510;2022-09-21T07:07:57;12.57;;;6.57;;
26277;SDS011;14000;52.056;8.510;2022-09-21T07:10:24;16.30;;;6.70;;
26277;SDS011;14000;52.056;8.510;2022-09-21T07:12:49;17.60;;;8.93;;
26277;SDS011;14000;52.056;8.510;2022-09-21T07:15:16;13.13;;;7.13;;
26277;SDS011;14000;52.056;8.510;2022-09-21T07:17:43;16.20;;;8.20;;
26277;SDS011;14000;52.056;8.510;2022-09-21T07:20:09;13.83;;;6.63;;
26277;SDS011;14000;52.056;8.510;2022-09-21T07:22:35;13.23;;;7.17;;
26277;SDS011;14000;52.056;8.510;2022-09-21T07:25:01;13.80;;;6.93;;
26277;SDS011;14000;52.056;8.510;2022-09-21T07:27:28;11.73;;;6.80;;
26277;SDS011;14000;52.056;8.510;2022-09-21T07:29:55;16.07;;;6.40;;
26277;SDS011;14000;52.056;8.510;2022-09-21T07:32:20;14.97;;;6.97;;
26277;SDS011;14000;52.056;8.510;2022-09-21T07:34:46;17.40;;;8.00;;
26277;SDS011;14000;52.056;8.510;2022-09-21T07:37:12;28.40;;;13.60;;
26277;SDS011;14000;52.056;8.510;2022-09-21T07:39:39;18.60;;;9.67;;
26277;SDS011;14000;52.056;8.510;2022-09-21T07:42:05;17.77;;;8.20;;
26277;SDS011;14000;52.056;8.510;2022-09-21T07:44:31;23.67;;;9.43;;
26277;SDS011;14000;52.056;8.510;2022-09-21T07:46:57;22.60;;;10.27;;
26277;SDS011;14000;52.056;8.510;2022-09-21T07:49:22;17.87;;;9.03;;
26277;SDS011;14000;52.056;8.510;2022-09-21T07:51:48;14.97;;;7.40;;
26277;SDS011;14000;52.056;8.510;2022-09-21T07:54:14;17.80;;;7.87;;
26277;SDS011;14000;52.056;8.510;2022-09-21T07:56:39;16.67;;;8.57;;
26277;SDS011;14000;52.056;8.510;2022-09-21T07:59:06;18.37;;;9.80;;
26277;SDS011;14000;52.056;8.510;2022-09-21T08:01:36;15.33;;;7.60;;
26277;SDS011;14000;52.056;8.510;2022-09-21T08:04:04;16.70;;;8.57;;
26277;SDS011;14000;52.056;8.510;2022-09-21T08:06:31;19.40;;;10.47;;
26277;SDS011;14000;52.056;8.510;2022-09-21T08:08:59;21.97;;;12.10;;
26277;SDS011;14000;52.056;8.510;2022-09-21T08:11:26;25.53;;;14.33;;
26277;SDS011;14000;52.056;8.510;2022-09-21T08:13:55;23.50;;;12.20;;
26277;SDS011;14000;52.056;8.510;2022-09-21T08:16:25;19.57;;;12.43;;
26277;SDS011;14000;52.056;8.510;2022-09-21T08:18:52;22.23;;;12.33;;
26277;SDS011;14000;52.056;8.510;2022-09-21T08:21:17;19.70;;;11.83;;
26277;SDS011;14000;52.056;8.510;2022-09-21T08:23:44;22.60;;;11.10;;
26277;SDS011;14000;52.056;8.510;2022-09-21T08:26:13;17.67;;;10.03;;
26277;SDS011;14000;52.056;8.510;2022-09-21T08:28:42;15.23;;;8.23;;
26277;SDS011;14000;52.056;8.510;2022-09-21T08:31:11;16.83;;;8.40;;
26277;SDS011;14000;52.056;8.510;2022-09-21T08:33:36;13.90;;;7.53;;
26277;SDS011;14000;52.056;8.510;2022-09-21T08:36:02;16.10;;;8.00;;
26277;SDS011;14000;52.056;8.510;2022-09-21T08:38:32;17.13;;;7.50;;
26277;SDS011;14000;52.056;8.510;2022-09-21T08:40:59;18.77;;;8.10;;
26277;SDS011;14000;52.056;8.510;2022-09-21T08:43:34;20.53;;;8.10;;
26277;SDS011;14000;52.056;8.510;2022-09-21T08:46:06;18.20;;;7.30;;
26277;SDS011;14000;52.056;8.510;2022-09-21T08:48:38;21.13;;;7.20;;
26277;SDS011;14000;52.056;8.510;2022-09-21T08:51:07;15.77;;;6.20;;
26277;SDS011;14000;52.056;8.510;2022-09-21T08:53:42;25.07;;;10.70;;
26277;SDS011;14000;52.056;8.510;2022-09-21T08:56:10;15.70;;;6.87;;
26277;SDS011;14000;52.056;8.510;2022-09-21T08:58:37;14.37;;;4.93;;
26277;SDS011;14000;52.056;8.510;2022-09-21T09:03:38;12.50;;;3.30;;
26277;SDS011;14000;52.056;8.510;2022-09-21T09:06:23;13.17;;;3.17;;
26277;SDS011;14000;52.056;8.510;2022-09-21T09:09:08;17.17;;;3.37;;
26277;SDS011;14000;52.056;8.510;2022-09-21T09:17:47;14.60;;;3.40;;
26277;SDS011;14000;52.056;8.510;2022-09-21T09:20:35;11.57;;;2.77;;
26277;SDS011;14000;52.056;8.510;2022-09-21T09:25:57;16.30;;;2.47;;
26277;SDS011;14000;52.056;8.510;2022-09-21T09:28:56;10.80;;;2.40;;
26277;SDS011;14000;52.056;8.510;2022-09-21T09:31:33;15.33;;;2.83;;
26277;SDS011;14000;52.056;8.510;2022-09-21T09:34:14;14.97;;;2.73;;
26277;SDS011;14000;52.056;8.510;2022-09-21T09:37:32;13.47;;;2.40;;
26277;SDS011;14000;52.056;8.510;2022-09-21T09:39:39;12.73;;;2.43;;
26277;SDS011;14000;52.056;8.510;2022-09-21T09:50:12;11.83;;;2.60;;
26277;SDS011;14000;52.056;8.510;2022-09-21T09:53:19;9.57;;;2.10;;
26277;SDS011;14000;52.056;8.510;2022-09-21T09:55:48;12.47;;;1.90;;
26277;SDS011;14000;52.056;8.510;2022-09-21T09:58:16;11.07;;;1.70;;
26277;SDS011;14000;52.056;8.510;2022-09-21T10:00:45;11.60;;;1.90;;
26277;SDS011;14000;52.056;8.510;2022-09-21T10:03:19;12.17;;;2.37;;
26277;SDS011;14000;52.056;8.510;2022-09-21T10:05:46;10.47;;;1.73;;
26277;SDS011;14000;52.056;8.510;2022-09-21T10:10:53;9.73;;;1.70;;
26277;SDS011;14000;52.056;8.510;2022-09-21T10:13:24;11.60;;;1.80;;
26277;SDS011;14000;52.056;8.510;2022-09-21T10:15:59;12.33;;;2.00;;
26277;SDS011;14000;52.056;8.510;2022-09-21T10:18:38;13.00;;;1.70;;
26277;SDS011;14000;52.056;8.510;2022-09-21T10:21:05;11.83;;;1.87;;
26277;SDS011;14000;52.056;8.510;2022-09-21T10:23:49;13.03;;;1.90;;
26277;SDS011;14000;52.056;8.510;2022-09-21T10:26:18;9.43;;;1.37;;
26277;SDS011;14000;52.056;8.510;2022-09-21T10:29:45;11.10;;;1.80;;
26277;SDS011;14000;52.056;8.510;2022-09-21T10:32:46;11.10;;;2.00;;
26277;SDS011;14000;52.056;8.510;2022-09-21T10:34:42;10.47;;;1.57;;
26277;SDS011;14000;52.056;8.510;2022-09-21T10:37:45;11.00;;;1.70;;
26277;SDS011;14000;52.056;8.510;2022-09-21T10:40:25;11.30;;;1.87;;
26277;SDS011;14000;52.056;8.510;2022-09-21T10:42:56;13.67;;;1.83;;
26277;SDS011;14000;52.056;8.510;2022-09-21T10:50:28;9.80;;;1.90;;
26277;SDS011;14000;52.056;8.510;2022-09-21T10:53:01;10.63;;;1.70;;
26277;SDS011;14000;52.056;8.510;2022-09-21T10:55:39;9.57;;;1.80;;
26277;SDS011;14000;52.056;8.510;2022-09-21T10:58:25;12.67;;;2.23;;
26277;SDS011;14000;52.056;8.510;2022-09-21T11:00:51;22.97;;;8.13;;
26277;SDS011;14000;52.056;8.510;2022-09-21T11:06:43;12.10;;;2.03;;
26277;SDS011;14000;52.056;8.510;2022-09-21T11:09:02;13.47;;;1.80;;
26277;SDS011;14000;52.056;8.510;2022-09-21T11:17:00;9.93;;;1.50;;
26277;SDS011;14000;52.056;8.510;2022-09-21T11:19:43;8.23;;;1.47;;
26277;SDS011;14000;52.056;8.510;2022-09-21T11:22:18;9.77;;;1.70;;
26277;SDS011;14000;52.056;8.510;2022-09-21T11:27:27;9.73;;;1.60;;
26277;SDS011;14000;52.056;8.510;2022-09-21T11:35:38;6.90;;;1.60;;
26277;SDS011;14000;52.056;8.510;2022-09-21T11:41:06;9.40;;;1.60;;
26277;SDS011;14000;52.056;8.510;2022-09-21T11:49:59;13.13;;;3.37;;
26277;SDS011;14000;52.056;8.510;2022-09-21T11:58:15;7.63;;;1.50;;
26277;SDS011;14000;52.056;8.510;2022-09-21T12:03:34;10.33;;;1.50;;
26277;SDS011;14000;52.056;8.510;2022-09-21T12:06:26;8.63;;;1.50;;
26277;SDS011;14000;52.056;8.510;2022-09-21T12:11:45;9.07;;;1.80;;
26277;SDS011;14000;52.056;8.510;2022-09-21T12:17:06;9.93;;;1.67;;
26277;SDS011;14000;52.056;8.510;2022-09-21T12:19:45;8.10;;;1.37;;
26277;SDS011;14000;52.056;8.510;2022-09-21T12:22:33;9.67;;;1.60;;
26277;SDS011;14000;52.056;8.510;2022-09-21T12:25:04;6.23;;;1.40;;
26277;SDS011;14000;52.056;8.510;2022-09-21T12:28:20;9.57;;;1.43;;
26277;SDS011;14000;52.056;8.510;2022-09-21T12:30:43;10.17;;;1.57;;
26277;SDS011;14000;52.056;8.510;2022-09-21T12:33:30;11.93;;;1.57;;
26277;SDS011;14000;52.056;8.510;2022-09-21T12:35:58;9.33;;;1.50;;
26277;SDS011;14000;52.056;8.510;2022-09-21T12:38:44;9.67;;;1.53;;
26277;SDS011;14000;52.056;8.510;2022-09-21T12:41:30;6.80;;;1.30;;
26277;SDS011;14000;52.056;8.510;2022-09-21T12:44:08;8.23;;;1.23;;
26277;SDS011;14000;52.056;8.510;2022-09-21T12:47:08;9.90;;;2.23;;
26277;SDS011;14000;52.056;8.510;2022-09-21T12:49:39;9.30;;;1.50;;
26277;SDS011;14000;52.056;8.510;2022-09-21T12:52:09;13.00;;;1.93;;
26277;SDS011;14000;52.056;8.510;2022-09-21T13:00:13;9.43;;;1.53;;
26277;SDS011;14000;52.056;8.510;2022-09-21T13:02:55;7.33;;;1.40;;
26277;SDS011;14000;52.056;8.510;2022-09-21T13:05:35;11.97;;;2.70;;
26277;SDS011;14000;52.056;8.510;2022-09-21T13:08:11;15.20;;;3.80;;
26277;SDS011;14000;52.056;8.510;2022-09-21T13:15:57;10.67;;;1.50;;
26277;SDS011;14000;52.056;8.510;2022-09-21T13:20:58;5.77;;;1.23;;
26277;SDS011;14000;52.056;8.510;2022-09-21T13:23:39;10.13;;;1.70;;
26277;SDS011;14000;52.056;8.510;2022-09-21T13:26:09;9.43;;;1.50;;
26277;SDS011;14000;52.056;8.510;2022-09-21T13:32:00;6.77;;;1.43;;
26277;SDS011;14000;52.056;8.510;2022-09-21T13:34:43;8.60;;;1.70;;
26277;SDS011;14000;52.056;8.510;2022-09-21T13:39:50;9.93;;;1.60;;
26277;SDS011;14000;52.056;8.510;2022-09-21T13:45:01;8.50;;;1.47;;
26277;SDS011;14000;52.056;8.510;2022-09-21T13:47:42;10.53;;;1.50;;
26277;SDS011;14000;52.056;8.510;2022-09-21T13:53:20;8.73;;;1.40;;
26277;SDS011;14000;52.056;8.510;2022-09-21T13:56:36;8.80;;;1.30;;
26277;SDS011;14000;52.056;8.510;2022-09-21T13:58:57;9.30;;;1.30;;
26277;SDS011;14000;52.056;8.510;2022-09-21T14:01:24;5.37;;;1.03;;
26277;SDS011;14000;52.056;8.510;2022-09-21T14:04:01;8.87;;;1.33;;
26277;SDS011;14000;52.056;8.510;2022-09-21T14:06:33;8.53;;;1.50;;
26277;SDS011;14000;52.056;8.510;2022-09-21T14:09:07;8.97;;;1.53;;
26277;SDS011;14000;52.056;8.510;2022-09-21T14:11:52;9.37;;;1.80;;
26277;SDS011;14000;52.056;8.510;2022-09-21T14:16:59;6.47;;;1.10;;
26277;SDS011;14000;52.056;8.510;2022-09-21T14:29:56;8.57;;;1.67;;
26277;SDS011;14000;52.056;8.510;2022-09-21T14:32:32;8.30;;;1.40;;
26277;SDS011;14000;52.056;8.510;2022-09-21T14:35:08;7.80;;;1.50;;
26277;SDS011;14000;52.056;8.510;2022-09-21T14:37:40;8.53;;;1.40;;
26277;SDS011;14000;52.056;8.510;2022-09-21T14:40:21;8.87;;;1.57;;
26277;SDS011;14000;52.056;8.510;2022-09-21T14:42:49;7.87;;;1.20;;
26277;SDS011;14000;52.056;8.510;2022-09-21T14:45:18;10.93;;;1.53;;
26277;SDS011;14000;52.056;8.510;2022-09-21T14:53:24;9.00;;;1.47;;
26277;SDS011;14000;52.056;8.510;2022-09-21T14:56:26;7.90;;;1.30;;
26277;SDS011;14000;52.056;8.510;2022-09-21T15:02:16;10.27;;;1.70;;
26277;SDS011;14000;52.056;8.510;2022-09-21T15:08:55;8.30;;;1.30;;
26277;SDS011;14000;52.056;8.510;2022-09-21T15:16:29;8.90;;;1.50;;
26277;SDS011;14000;52.056;8.510;2022-09-21T15:21:47;7.53;;;1.20;;
26277;SDS011;14000;52.056;8.510;2022-09-21T15:24:25;8.03;;;1.30;;
26277;SDS011;14000;52.056;8.510;2022-09-21T15:27:00;12.17;;;1.83;;
26277;SDS011;14000;52.056;8.510;2022-09-21T15:29:28;9.70;;;1.47;;
26277;SDS011;14000;52.056;8.510;2022-09-21T15:31:55;10.43;;;1.60;;
26277;SDS011;14000;52.056;8.510;2022-09-21T15:34:22;7.37;;;1.30;;
26277;SDS011;14000;52.056;8.510;2022-09-21T15:36:47;9.27;;;1.70;;
26277;SDS011;14000;52.056;8.510;2022-09-21T15:39:28;10.43;;;1.60;;
26277;SDS011;14000;52.056;8.510;2022-09-21T15:44:33;9.37;;;1.53;;
26277;SDS011;14000;52.056;8.510;2022-09-21T15:47:06;7.77;;;1.27;;
26277;SDS011;14000;52.056;8.510;2022-09-21T15:49:39;7.73;;;1.30;;
26277;SDS011;14000;52.056;8.510;2022-09-21T15:52:10;5.97;;;1.40;;
26277;SDS011;14000;52.056;8.510;2022-09-21T15:54:47;8.80;;;1.30;;
26277;SDS011;14000;52.056;8.510;2022-09-21T15:57:41;8.63;;;1.50;;
26277;SDS011;14000;52.056;8.510;2022-09-21T16:02:39;8.03;;;1.40;;
26277;SDS011;14000;52.056;8.510;2022-09-21T16:05:07;8.87;;;1.40;;
26277;SDS011;14000;52.056;8.510;2022-09-21T16:07:43;7.50;;;1.30;;
26277;SDS011;14000;52.056;8.510;2022-09-21T16:16:08;7.83;;;1.63;;
26277;SDS011;14000;52.056;8.510;2022-09-21T16:18:46;9.47;;;1.70;;
26277;SDS011;14000;52.056;8.510;2022-09-21T16:21:32;8.70;;;1.50;;
26277;SDS011;14000;52.056;8.510;2022-09-21T16:24:08;8.93;;;1.63;;
26277;SDS011;14000;52.056;8.510;2022-09-21T16:26:48;10.43;;;1.73;;
26277;SDS011;14000;52.056;8.510;2022-09-21T16:29:22;8.03;;;1.30;;
26277;SDS011;14000;52.056;8.510;2022-09-21T16:31:50;7.03;;;1.43;;
26277;SDS011;14000;52.056;8.510;2022-09-21T16:37:00;8.33;;;1.73;;
26277;SDS011;14000;52.056;8.510;2022-09-21T16:39:48;9.53;;;2.20;;
26277;SDS011;14000;52.056;8.510;2022-09-21T16:42:15;9.10;;;1.50;;
26277;SDS011;14000;52.056;8.510;2022-09-21T16:44:41;10.23;;;2.23;;
26277;SDS011;14000;52.056;8.510;2022-09-21T16:47:11;9.87;;;1.90;;
26277;SDS011;14000;52.056;8.510;2022-09-21T16:49:39;9.40;;;2.20;;
26277;SDS011;14000;52.056;8.510;2022-09-21T16:52:05;9.83;;;2.30;;
26277;SDS011;14000;52.056;8.510;2022-09-21T16:54:31;9.23;;;2.17;;
26277;SDS011;14000;52.056;8.510;2022-09-21T16:56:59;8.87;;;1.90;;
26277;SDS011;14000;52.056;8.510;2022-09-21T16:59:26;8.53;;;1.90;;
26277;SDS011;14000;52.056;8.510;2022-09-21T17:01:54;9.97;;;1.80;;
26277;SDS011;14000;52.056;8.510;2022-09-21T17:04:22;7.37;;;1.80;;
26277;SDS011;14000;52.056;8.510;2022-09-21T17:06:49;10.70;;;1.70;;
26277;SDS011;14000;52.056;8.510;2022-09-21T17:09:26;10.67;;;1.70;;
26277;SDS011;14000;52.056;8.510;2022-09-21T17:12:00;8.23;;;1.80;;
26277;SDS011;14000;52.056;8.510;2022-09-21T17:14:31;7.03;;;1.73;;
26277;SDS011;14000;52.056;8.510;2022-09-21T17:16:59;9.67;;;1.87;;
26277;SDS011;14000;52.056;8.510;2022-09-21T17:19:46;9.17;;;2.00;;
26277;SDS011;14000;52.056;8.510;2022-09-21T17:22:13;14.13;;;2.40;;
26277;SDS011;14000;52.056;8.510;2022-09-21T17:24:46;9.03;;;2.30;;
26277;SDS011;14000;52.056;8.510;2022-09-21T17:27:13;10.93;;;2.63;;
26277;SDS011;14000;52.056;8.510;2022-09-21T17:29:41;9.17;;;2.13;;
26277;SDS011;14000;52.056;8.510;2022-09-21T17:32:12;12.73;;;2.50;;
26277;SDS011;14000;52.056;8.510;2022-09-21T17:34:39;10.43;;;1.70;;
26277;SDS011;14000;52.056;8.510;2022-09-21T17:37:06;8.90;;;2.27;;
26277;SDS011;14000;52.056;8.510;2022-09-21T17:39:33;9.10;;;1.90;;
26277;SDS011;14000;52.056;8.510;2022-09-21T17:42:12;10.00;;;2.27;;
26277;SDS011;14000;52.056;8.510;2022-09-21T17:47:36;8.80;;;2.10;;
26277;SDS011;14000;52.056;8.510;2022-09-21T17:53:03;9.57;;;2.17;;
26277;SDS011;14000;52.056;8.510;2022-09-21T17:55:52;11.97;;;2.40;;
26277;SDS011;14000;52.056;8.510;2022-09-21T17:58:30;11.70;;;2.50;;
26277;SDS011;14000;52.056;8.510;2022-09-21T18:01:05;12.00;;;2.57;;
26277;SDS011;14000;52.056;8.510;2022-09-21T18:03:36;9.60;;;2.40;;
26277;SDS011;14000;52.056;8.510;2022-09-21T18:06:05;13.93;;;5.40;;
26277;SDS011;14000;52.056;8.510;2022-09-21T18:08:32;20.77;;;8.70;;